createdAt,value
2018-10-05T00:01:41.227Z,102184.56
2018-10-05T00:04:10.321Z,102189.91
2018-10-05T00:06:39.367Z,102188.69
2018-10-05T00:09:10.946Z,102184.65
2018-10-05T00:11:40.133Z,102184.70
2018-10-05T00:14:09.466Z,102189.60
2018-10-05T00:16:38.572Z,102190.08
2018-10-05T00:19:07.731Z,102182.09
2018-10-05T00:21:36.775Z,102179.79
2018-10-05T00:24:05.870Z,102174.53
2018-10-05T00:26:34.985Z,102173.59
2018-10-05T00:29:04.010Z,102171.42
2018-10-05T00:31:33.128Z,102171.42
2018-10-05T00:34:02.230Z,102175.45
2018-10-05T00:36:31.377Z,102167.38
2018-10-05T00:39:00.443Z,102165.59
2018-10-05T00:41:29.507Z,102157.57
2018-10-05T00:43:58.628Z,102158.91
2018-10-05T00:46:27.683Z,102164.34
2018-10-05T00:48:56.784Z,102152.71
2018-10-05T00:51:25.837Z,102151.86
2018-10-05T00:53:54.908Z,102148.72
2018-10-05T00:56:24.019Z,102145.11
2018-10-05T00:58:53.121Z,102142.90
2018-10-05T01:01:22.199Z,102136.19
2018-10-05T01:03:51.327Z,102140.65
2018-10-05T01:06:20.365Z,102135.80
2018-10-05T01:08:49.460Z,102124.55
2018-10-05T01:11:18.604Z,102128.16
2018-10-05T01:13:48.936Z,102129.12
2018-10-05T01:16:17.970Z,102131.33
2018-10-05T01:18:47.311Z,102120.99
2018-10-05T01:21:16.382Z,102117.48
2018-10-05T01:23:45.439Z,102119.30
2018-10-05T01:26:14.496Z,102114.36
2018-10-05T01:28:43.570Z,102112.16
2018-10-05T01:31:12.792Z,102108.59
2018-10-05T01:33:41.882Z,102105.90
2018-10-05T01:36:10.966Z,102100.99
2018-10-05T01:38:40.099Z,102100.13
2018-10-05T01:41:09.366Z,102100.56
2018-10-05T01:43:38.498Z,102099.70
2018-10-05T01:46:07.616Z,102092.10
2018-10-05T01:48:36.707Z,102097.00
2018-10-05T01:51:05.755Z,102085.38
2018-10-05T01:53:34.808Z,102093.05
2018-10-05T01:56:03.870Z,102090.41
2018-10-05T02:01:03.236Z,102097.95
2018-10-05T02:03:32.280Z,102090.89
2018-10-05T02:06:02.962Z,102081.95
2018-10-05T02:08:34.173Z,102085.08
2018-10-05T02:11:03.326Z,102082.39
2018-10-05T02:13:32.448Z,102083.73
2018-10-05T02:16:01.523Z,102078.83
2018-10-05T02:18:30.629Z,102076.67
2018-10-05T02:20:59.727Z,102073.53
2018-10-05T02:23:28.787Z,102065.03
2018-10-05T02:25:58.086Z,102062.34
2018-10-05T02:28:27.191Z,102059.61
2018-10-05T02:30:56.425Z,102059.61
2018-10-05T02:33:25.534Z,102051.11
2018-10-05T02:35:54.631Z,102046.69
2018-10-05T02:38:23.699Z,102046.20
2018-10-05T02:40:52.779Z,102035.92
2018-10-05T02:43:21.836Z,102036.87
2018-10-05T02:45:50.902Z,102037.27
2018-10-05T02:48:20.162Z,102030.59
2018-10-05T02:50:49.434Z,102025.21
2018-10-05T02:53:18.486Z,102022.08
2018-10-05T02:55:47.602Z,102022.52
2018-10-05T02:58:16.658Z,102021.27
2018-10-05T03:00:57.246Z,102019.44
2018-10-05T03:03:26.428Z,102016.75
2018-10-05T03:05:55.530Z,102018.57
2018-10-05T03:08:24.576Z,102014.53
2018-10-05T03:10:53.728Z,102012.33
2018-10-05T03:13:22.835Z,102005.98
2018-10-05T03:15:51.919Z,102006.94
2018-10-05T03:18:20.992Z,102007.81
2018-10-05T03:20:50.137Z,102012.33
2018-10-05T03:23:19.166Z,102008.34
2018-10-05T03:25:48.234Z,102000.22
2018-10-05T03:28:17.386Z,102002.43
2018-10-05T03:30:46.502Z,102000.22
2018-10-05T03:33:15.598Z,101993.02
2018-10-05T03:35:44.678Z,101988.11
2018-10-05T03:38:13.738Z,101993.49
2018-10-05T03:40:42.842Z,101987.21
2018-10-05T03:43:11.903Z,101986.81
2018-10-05T03:45:40.967Z,101993.06
2018-10-05T03:48:10.066Z,101987.73
2018-10-05T03:50:39.150Z,101981.49
2018-10-05T03:53:08.238Z,101983.31
2018-10-05T03:55:37.479Z,101977.06
2018-10-05T03:58:06.571Z,101976.19
2018-10-05T04:00:35.676Z,101974.42
2018-10-05T04:03:04.826Z,101970.00
2018-10-05T04:05:33.923Z,101965.96
2018-10-05T04:08:03.044Z,101961.98
2018-10-05T04:10:32.122Z,101967.36
2018-10-05T04:13:01.832Z,101967.36
2018-10-05T04:15:31.166Z,101958.81
2018-10-05T04:18:00.204Z,101959.29
2018-10-05T04:20:29.252Z,101956.60
2018-10-05T04:22:59.168Z,101958.90
2018-10-05T04:25:28.268Z,101958.90
2018-10-05T04:27:57.229Z,101956.21
2018-10-05T04:30:26.321Z,101957.12
2018-10-05T04:32:55.386Z,101960.30
2018-10-05T04:35:24.550Z,101955.39
2018-10-05T04:37:53.803Z,101954.52
2018-10-05T04:40:22.927Z,101946.98
2018-10-05T04:42:52.109Z,101953.31
2018-10-05T04:45:21.380Z,101958.74
2018-10-05T04:47:50.443Z,101952.02
2018-10-05T04:50:19.519Z,101953.41
2018-10-05T04:52:48.568Z,101950.33
2018-10-05T04:55:17.651Z,101945.91
2018-10-05T04:57:46.715Z,101951.81
2018-10-05T05:00:15.809Z,101949.17
2018-10-05T05:02:44.876Z,101950.91
2018-10-05T05:05:19.415Z,101936.20
2018-10-05T05:07:48.635Z,101945.09
2018-10-05T05:10:17.688Z,101937.08
2018-10-05T05:12:46.760Z,101936.13
2018-10-05T05:15:15.824Z,101937.47
2018-10-05T05:17:44.913Z,101934.77
2018-10-05T05:20:13.977Z,101935.73
2018-10-05T05:22:43.072Z,101930.83
2018-10-05T05:25:12.163Z,101926.31
2018-10-05T05:27:41.280Z,101929.01
2018-10-05T05:30:10.948Z,101926.80
2018-10-05T05:32:40.120Z,101921.94
2018-10-05T05:35:09.159Z,101921.47
2018-10-05T05:37:43.758Z,101918.39
2018-10-05T05:40:12.950Z,101913.88
2018-10-05T05:42:42.210Z,101910.80
2018-10-05T05:45:11.280Z,101915.27
2018-10-05T05:47:40.672Z,101917.09
2018-10-05T05:50:09.800Z,101911.80
2018-10-05T05:52:38.855Z,101914.94
2018-10-05T05:55:07.940Z,101918.52
2018-10-05T05:57:37.075Z,101909.55
2018-10-05T06:00:06.168Z,101911.45
2018-10-05T06:02:35.295Z,101906.52
2018-10-05T06:05:04.332Z,101909.21
2018-10-05T06:07:33.390Z,101912.33
2018-10-05T06:10:02.792Z,101907.87
2018-10-05T06:12:31.851Z,101913.20
2018-10-05T06:15:00.923Z,101912.24
2018-10-05T06:17:29.971Z,101912.24
2018-10-05T06:19:59.095Z,101911.72
2018-10-05T06:22:28.378Z,101912.06
2018-10-05T06:24:57.531Z,101917.30
2018-10-05T06:27:26.618Z,101914.51
2018-10-05T06:29:55.930Z,101923.39
2018-10-05T06:32:25.043Z,101922.83
2018-10-05T06:34:54.127Z,101922.73
2018-10-05T06:37:26.576Z,101927.49
2018-10-05T06:39:55.699Z,101926.09
2018-10-05T06:42:25.019Z,101922.84
2018-10-05T06:44:54.311Z,101922.31
2018-10-05T06:47:23.427Z,101919.44
2018-10-05T06:49:52.447Z,101914.87
2018-10-05T06:52:21.592Z,101916.08
2018-10-05T06:54:50.649Z,101924.43
2018-10-05T06:57:19.696Z,101916.22
2018-10-05T06:59:48.759Z,101918.37
2018-10-05T07:02:17.851Z,101924.09
2018-10-05T07:04:46.949Z,101927.10
2018-10-05T07:07:16.035Z,101919.76
2018-10-05T07:09:45.152Z,101920.43
2018-10-05T07:12:14.317Z,101923.98
2018-10-05T07:14:43.444Z,101926.62
2018-10-05T07:17:12.608Z,101920.71
2018-10-05T07:19:41.775Z,101919.61
2018-10-05T07:22:10.790Z,101923.45
2018-10-05T07:24:39.849Z,101921.03
2018-10-05T07:27:08.938Z,101914.49
2018-10-05T07:29:38.074Z,101914.88
2018-10-05T07:32:07.287Z,101913.81
2018-10-05T07:34:36.353Z,101917.70
2018-10-05T07:37:05.456Z,101913.94
2018-10-05T07:39:34.681Z,101912.54
2018-10-05T07:42:03.787Z,101911.05
2018-10-05T07:44:33.023Z,101908.34
2018-10-05T07:47:02.083Z,101902.16
2018-10-05T07:49:31.327Z,101902.48
2018-10-05T07:52:00.416Z,101903.36
2018-10-05T07:54:29.526Z,101905.90
2018-10-05T07:56:58.560Z,101901.41
2018-10-05T07:59:27.620Z,101907.52
2018-10-05T08:01:56.670Z,101903.00
2018-10-05T08:04:25.756Z,101903.09
2018-10-05T08:06:54.840Z,101902.55
2018-10-05T08:09:23.999Z,101909.28
2018-10-05T08:11:53.179Z,101908.39
2018-10-05T08:14:22.239Z,101905.36
2018-10-05T08:16:51.312Z,101900.39
2018-10-05T08:19:20.436Z,101903.33
2018-10-05T08:21:49.522Z,101905.09
2018-10-05T08:24:18.578Z,101903.27
2018-10-05T08:26:47.644Z,101899.77
2018-10-05T08:29:16.810Z,101889.47
2018-10-05T08:31:45.890Z,101893.84
2018-10-05T08:34:15.079Z,101886.63
2018-10-05T08:36:44.283Z,101888.84
2018-10-05T08:39:13.362Z,101883.12
2018-10-05T08:41:42.496Z,101891.53
2018-10-05T08:44:11.827Z,101884.89
2018-10-05T08:46:40.924Z,101883.12
2018-10-05T08:49:09.993Z,101886.30
2018-10-05T08:51:39.101Z,101877.35
2018-10-05T08:54:08.583Z,101875.14
2018-10-05T08:56:37.634Z,101874.13
2018-10-05T08:59:06.808Z,101874.13
2018-10-05T09:01:35.849Z,101870.63
2018-10-05T09:04:04.995Z,101872.35
2018-10-05T09:06:34.045Z,101865.30
2018-10-05T09:09:03.512Z,101863.62
2018-10-05T09:11:32.603Z,101862.60
2018-10-05T09:14:01.677Z,101856.83
2018-10-05T09:16:30.745Z,101856.20
2018-10-05T09:19:00.014Z,101851.77
2018-10-05T09:21:29.087Z,101846.32
2018-10-05T09:23:58.172Z,101855.33
2018-10-05T09:26:27.391Z,101846.38
2018-10-05T09:28:56.473Z,101842.52
2018-10-05T09:31:25.538Z,101833.95
2018-10-05T09:33:55.605Z,101832.16
2018-10-05T09:36:24.680Z,101830.18
2018-10-05T09:38:53.737Z,101826.79
2018-10-05T09:41:22.820Z,101821.88
2018-10-05T09:43:51.875Z,101821.14
2018-10-05T09:46:20.991Z,101821.22
2018-10-05T09:48:50.133Z,101812.17
2018-10-05T09:51:19.220Z,101807.11
2018-10-05T09:53:48.327Z,101807.53
2018-10-05T09:56:17.406Z,101802.52
2018-10-05T09:58:46.507Z,101805.06
2018-10-05T10:01:20.876Z,101803.17
2018-10-05T10:03:49.910Z,101795.41
2018-10-05T10:06:19.030Z,101789.73
2018-10-05T10:08:48.115Z,101789.73
2018-10-05T10:11:17.151Z,101787.58
2018-10-05T10:13:46.537Z,101777.41
2018-10-05T10:16:15.867Z,101777.83
2018-10-05T10:18:44.933Z,101772.92
2018-10-05T10:21:14.003Z,101770.61
2018-10-05T10:23:43.087Z,101764.74
2018-10-05T10:26:12.147Z,101756.27
2018-10-05T10:28:41.315Z,101757.20
2018-10-05T10:31:10.483Z,101755.31
2018-10-05T10:33:39.574Z,101750.47
2018-10-05T10:36:08.844Z,101746.91
2018-10-05T10:38:37.906Z,101749.60
2018-10-05T10:41:07.098Z,101738.13
2018-10-05T10:43:36.149Z,101739.84
2018-10-05T10:46:05.237Z,101739.05
2018-10-05T10:48:34.297Z,101742.16
2018-10-05T10:51:03.356Z,101738.41
2018-10-05T10:53:32.447Z,101731.29
2018-10-05T10:56:01.533Z,101730.91
2018-10-05T10:58:30.724Z,101717.63
2018-10-05T11:00:59.917Z,101718.66
2018-10-05T11:03:29.114Z,101712.78
2018-10-05T11:05:58.277Z,101714.93
2018-10-05T11:08:27.579Z,101710.38
2018-10-05T11:10:56.907Z,101707.59
2018-10-05T11:13:26.333Z,101707.53
2018-10-05T11:15:55.495Z,101708.39
2018-10-05T11:18:24.771Z,101712.05
2018-10-05T11:20:54.103Z,101708.77
2018-10-05T11:23:23.402Z,101707.42
2018-10-05T11:25:52.921Z,101706.17
2018-10-05T11:28:22.100Z,101705.05
2018-10-05T11:30:51.407Z,101698.89
2018-10-05T11:33:20.680Z,101692.23
2018-10-05T11:35:49.930Z,101698.80
2018-10-05T11:38:19.118Z,101688.88
2018-10-05T11:40:48.461Z,101684.14
2018-10-05T11:43:17.830Z,101675.74
2018-10-05T11:45:47.008Z,101674.78
2018-10-05T11:48:16.174Z,101668.20
2018-10-05T11:50:45.461Z,101662.75
2018-10-05T11:53:14.718Z,101654.98
2018-10-05T11:55:44.029Z,101654.89
2018-10-05T11:58:13.196Z,101645.46
2018-10-05T12:00:42.513Z,101646.42
2018-10-05T12:03:11.694Z,101637.48
2018-10-05T12:05:40.972Z,101639.63
2018-10-05T12:08:10.314Z,101633.50
2018-10-05T12:10:39.503Z,101626.70
2018-10-05T12:13:08.874Z,101624.39
2018-10-05T12:15:38.202Z,101623.53
2018-10-05T12:18:07.521Z,101617.27
2018-10-05T12:20:36.777Z,101611.89
2018-10-05T12:23:05.995Z,101611.89
2018-10-05T12:25:35.184Z,101609.74
2018-10-05T12:28:04.413Z,101609.27
2018-10-05T12:30:33.605Z,101608.23
2018-10-05T12:33:02.807Z,101601.02
2018-10-05T12:35:32.021Z,101597.77
2018-10-05T12:38:01.269Z,101591.83
2018-10-05T12:40:30.569Z,101593.24
2018-10-05T12:42:59.795Z,101592.38
2018-10-05T12:45:28.967Z,101580.25
2018-10-05T12:47:58.244Z,101577.73
2018-10-05T12:50:27.433Z,101579.24
2018-10-05T12:52:56.619Z,101582.00
2018-10-05T12:55:25.872Z,101578.45
2018-10-05T12:57:55.037Z,101577.03
2018-10-05T13:00:24.276Z,101570.30
2018-10-05T13:02:53.620Z,101573.95
2018-10-05T13:05:22.816Z,101563.66
2018-10-05T13:07:52.127Z,101565.84
2018-10-05T13:10:21.360Z,101563.63
2018-10-05T13:12:50.708Z,101566.33
2018-10-05T13:15:20.125Z,101558.70
2018-10-05T13:17:49.330Z,101551.52
2018-10-05T13:20:18.585Z,101551.89
2018-10-05T13:22:47.894Z,101555.55
2018-10-05T13:25:17.078Z,101554.66
2018-10-05T13:27:46.253Z,101554.66
2018-10-05T13:30:15.383Z,101552.41
2018-10-05T13:32:44.614Z,101545.67
2018-10-05T13:35:13.778Z,101541.19
2018-10-05T13:37:42.958Z,101541.63
2018-10-05T13:40:12.159Z,101536.83
2018-10-05T13:42:41.355Z,101539.91
2018-10-05T13:45:10.551Z,101538.08
2018-10-05T13:47:39.754Z,101537.59
2018-10-05T13:50:10.600Z,101528.27
2018-10-05T13:52:39.887Z,101526.82
2018-10-05T13:55:09.183Z,101527.30
2018-10-05T13:57:38.377Z,101520.19
2018-10-05T14:00:07.895Z,101522.02
2018-10-05T14:02:37.184Z,101517.49
2018-10-05T14:05:06.503Z,101515.66
2018-10-05T14:07:35.679Z,101518.29
2018-10-05T14:10:05.218Z,101513.83
2018-10-05T14:12:34.461Z,101506.16
2018-10-05T14:15:03.717Z,101512.45
2018-10-05T14:17:32.953Z,101511.11
2018-10-05T14:20:02.343Z,101503.47
2018-10-05T14:22:31.586Z,101505.72
2018-10-05T14:25:00.739Z,101498.91
2018-10-05T14:27:29.917Z,101502.85
2018-10-05T14:29:59.088Z,101499.22
2018-10-05T14:32:28.419Z,101499.53
2018-10-05T14:34:57.610Z,101495.39
2018-10-05T14:37:26.906Z,101494.91
2018-10-05T14:39:56.032Z,101488.66
2018-10-05T14:42:25.200Z,101489.52
2018-10-05T14:44:54.455Z,101479.05
2018-10-05T14:47:23.815Z,101484.06
2018-10-05T14:49:53.000Z,101478.13
2018-10-05T14:52:24.501Z,101471.28
2018-10-05T14:54:54.766Z,101474.77
2018-10-05T14:57:24.010Z,101465.34
2018-10-05T14:59:54.108Z,101463.30
2018-10-05T15:02:23.352Z,101462.64
2018-10-05T15:04:52.753Z,101466.78
2018-10-05T15:07:21.981Z,101459.64
2018-10-05T15:09:51.345Z,101453.03
2018-10-05T15:12:20.744Z,101454.80
2018-10-05T15:14:49.962Z,101452.72
2018-10-05T15:17:19.288Z,101456.76
2018-10-05T15:19:48.469Z,101452.48
2018-10-05T15:22:17.686Z,101446.05
2018-10-05T15:24:47.017Z,101450.70
2018-10-05T15:27:16.252Z,101443.41
2018-10-05T15:29:45.482Z,101440.90
2018-10-05T15:32:20.062Z,101437.84
2018-10-05T15:34:49.264Z,101432.45
2018-10-05T15:37:18.492Z,101428.70
2018-10-05T15:39:47.695Z,101426.69
2018-10-05T15:42:16.818Z,101420.18
2018-10-05T15:44:46.413Z,101417.79
2018-10-05T15:47:16.726Z,101419.03
2018-10-05T15:49:46.467Z,101409.14
2018-10-05T15:52:15.689Z,101415.22
2018-10-05T15:54:44.894Z,101407.99
2018-10-05T15:57:14.062Z,101405.78
2018-10-05T15:59:43.290Z,101413.38
2018-10-05T16:02:12.630Z,101420.98
2018-10-05T16:04:42.008Z,101418.14
2018-10-05T16:07:11.169Z,101411.85
2018-10-05T16:09:40.419Z,101415.59
2018-10-05T16:12:09.624Z,101412.95
2018-10-05T16:14:38.930Z,101413.98
2018-10-05T16:17:08.284Z,101412.56
2018-10-05T16:19:37.551Z,101413.05
2018-10-05T16:22:06.851Z,101406.08
2018-10-05T16:24:43.788Z,101407.92
2018-10-05T16:27:13.703Z,101409.75
2018-10-05T16:29:42.939Z,101410.05
2018-10-05T16:32:12.479Z,101409.87
2018-10-05T16:34:41.815Z,101406.95
2018-10-05T16:37:11.272Z,101407.66
2018-10-05T16:39:40.654Z,101402.16
2018-10-05T16:42:09.931Z,101401.91
2018-10-05T16:57:43.661Z,101400.48
2018-10-05T17:00:12.869Z,101390.98
2018-10-05T17:02:42.022Z,101393.37
2018-10-05T17:05:11.163Z,101389.92
2018-10-05T17:07:40.333Z,101389.14
2018-10-05T17:10:09.549Z,101386.14
2018-10-05T17:12:38.845Z,101385.73
2018-10-05T17:15:08.064Z,101386.31
2018-10-05T17:17:37.242Z,101383.39
2018-10-05T17:20:06.441Z,101392.75
2018-10-05T17:22:35.734Z,101387.69
2018-10-05T17:25:05.034Z,101389.52
2018-10-05T17:27:34.240Z,101388.42
2018-10-05T17:30:03.576Z,101386.77
2018-10-05T17:32:32.750Z,101392.47
2018-10-05T17:35:01.967Z,101393.13
2018-10-05T17:37:31.221Z,101394.85
2018-10-05T17:40:00.423Z,101391.47
2018-10-05T17:42:29.523Z,101391.62
2018-10-05T17:44:58.739Z,101392.14
2018-10-05T17:47:28.244Z,101388.28
2018-10-05T17:49:57.417Z,101386.06
2018-10-05T17:52:26.740Z,101385.77
2018-10-05T17:54:55.933Z,101384.41
2018-10-05T17:57:25.222Z,101382.69
2018-10-05T17:59:54.635Z,101378.54
2018-10-05T18:02:24.018Z,101376.81
2018-10-05T18:04:53.769Z,101380.92
2018-10-05T18:07:22.964Z,101379.58
2018-10-05T18:09:52.249Z,101374.30
2018-10-05T18:12:21.509Z,101373.99
2018-10-05T18:14:50.749Z,101374.55
2018-10-05T18:17:20.139Z,101370.58
2018-10-05T18:19:49.647Z,101361.64
2018-10-05T18:22:18.870Z,101358.16
2018-10-05T18:24:48.134Z,101357.67
2018-10-05T18:27:17.314Z,101359.32
2018-10-05T18:29:46.642Z,101364.16
2018-10-05T18:32:15.854Z,101355.28
2018-10-05T18:34:45.028Z,101362.02
2018-10-05T18:37:14.202Z,101359.80
2018-10-05T18:39:43.546Z,101362.42
2018-10-05T18:42:12.740Z,101359.25
2018-10-05T18:44:41.922Z,101367.26
2018-10-05T18:47:11.092Z,101357.17
2018-10-05T18:49:40.284Z,101360.55
2018-10-05T18:52:09.450Z,101357.72
2018-10-05T18:54:38.644Z,101353.08
2018-10-05T18:57:13.587Z,101361.43
2018-10-05T18:59:42.981Z,101354.63
2018-10-05T19:02:12.552Z,101350.89
2018-10-05T19:04:42.072Z,101356.95
2018-10-05T19:07:11.270Z,101354.57
2018-10-05T19:09:40.546Z,101353.22
2018-10-05T19:12:09.692Z,101355.36
2018-10-05T19:14:38.868Z,101360.19
2018-10-05T19:17:08.064Z,101361.84
2018-10-05T19:19:37.276Z,101357.31
2018-10-05T19:22:06.954Z,101353.75
2018-10-05T19:24:36.137Z,101348.30
2018-10-05T19:27:05.411Z,101349.16
2018-10-05T19:29:34.596Z,101352.18
2018-10-05T19:32:03.910Z,101352.44
2018-10-05T19:34:33.085Z,101350.89
2018-10-05T19:37:02.189Z,101346.92
2018-10-05T19:39:31.564Z,101345.68
2018-10-05T19:42:00.919Z,101345.27
2018-10-05T19:44:30.235Z,101343.20
2018-10-05T19:46:59.334Z,101345.97
2018-10-05T19:49:28.589Z,101340.06
2018-10-05T19:51:57.830Z,101339.50
2018-10-05T19:54:27.058Z,101336.70
2018-10-05T19:56:56.294Z,101332.10
2018-10-05T19:59:31.050Z,101324.81
2018-10-05T20:02:05.974Z,101318.08
2018-10-05T20:04:35.333Z,101327.12
2018-10-05T20:07:04.726Z,101322.60
2018-10-05T20:09:33.948Z,101326.46
2018-10-05T20:12:03.170Z,101330.88
2018-10-05T20:14:32.409Z,101328.48
2018-10-05T20:17:01.648Z,101328.97
2018-10-05T20:19:30.809Z,101320.89
2018-10-05T20:22:00.006Z,101318.20
2018-10-05T20:24:29.409Z,101315.98
2018-10-05T20:26:58.748Z,101312.81
2018-10-05T20:29:27.955Z,101309.17
2018-10-05T20:31:57.204Z,101306.07
2018-10-05T20:34:26.456Z,101315.91
2018-10-05T20:36:56.016Z,101307.42
2018-10-05T20:39:25.262Z,101310.04
2018-10-05T20:41:54.497Z,101306.48
2018-10-05T20:44:23.879Z,101306.00
2018-10-05T20:46:53.356Z,101305.52
2018-10-05T20:49:22.609Z,101305.52
2018-10-05T20:51:51.852Z,101302.81
2018-10-05T20:54:21.066Z,101299.16
2018-10-05T20:56:50.306Z,101295.22
2018-10-05T20:59:19.650Z,101298.96
2018-10-05T21:01:48.872Z,101297.20
2018-10-05T21:04:18.266Z,101289.72
2018-10-05T21:06:47.646Z,101278.16
2018-10-05T21:09:16.981Z,101274.11
2018-10-05T21:11:46.181Z,101274.97
2018-10-05T21:14:17.267Z,101276.70
2018-10-05T21:16:46.480Z,101273.55
2018-10-05T21:19:15.876Z,101273.37
2018-10-05T21:21:45.150Z,101272.88
2018-10-05T21:24:14.398Z,101270.75
2018-10-05T21:26:43.704Z,101266.70
2018-10-05T21:29:12.882Z,101264.42
2018-10-05T21:31:42.134Z,101259.78
2018-10-05T21:34:11.386Z,101264.54
2018-10-05T21:36:40.665Z,101250.84
2018-10-05T21:39:11.101Z,101253.23
2018-10-05T21:41:40.520Z,101260.08
2018-10-05T21:44:09.852Z,101256.98
2018-10-05T21:46:39.071Z,101257.09
2018-10-05T21:49:08.484Z,101250.43
2018-10-05T21:51:37.824Z,101250.91
2018-10-05T21:54:07.274Z,101251.47
2018-10-05T21:56:36.455Z,101250.98
2018-10-05T21:59:05.685Z,101246.46
2018-10-05T22:01:34.969Z,101243.87
2018-10-05T22:04:04.222Z,101254.73
2018-10-05T22:06:33.544Z,101249.34
2018-10-05T22:09:02.810Z,101240.44
2018-10-05T22:11:32.017Z,101241.78
2018-10-05T22:14:01.348Z,101240.92
2018-10-05T22:16:30.626Z,101234.27
2018-10-05T22:18:59.842Z,101234.68
2018-10-05T22:21:29.043Z,101234.68
2018-10-05T22:23:58.256Z,101233.41
2018-10-05T22:26:27.502Z,101221.39
2018-10-05T22:28:56.739Z,101228.20
2018-10-05T22:31:26.003Z,101226.78
2018-10-05T22:33:55.327Z,101226.78
2018-10-05T22:36:24.657Z,101226.37
2018-10-05T22:38:53.829Z,101227.23
2018-10-05T22:41:23.050Z,101226.00
2018-10-05T22:43:52.343Z,101222.44
2018-10-05T22:46:21.581Z,101211.19
2018-10-05T22:48:50.849Z,101215.59
2018-10-05T22:51:19.929Z,101214.81
2018-10-05T22:53:48.985Z,101213.47
2018-10-05T22:56:18.055Z,101209.91
2018-10-05T22:58:47.183Z,101214.44
2018-10-05T23:01:16.336Z,101206.84
2018-10-05T23:03:45.387Z,101204.53
2018-10-05T23:06:14.451Z,101202.32
2018-10-05T23:08:43.567Z,101201.45
2018-10-05T23:11:12.632Z,101197.49
2018-10-05T23:13:41.702Z,101201.05
2018-10-05T23:16:10.790Z,101204.64
2018-10-05T23:18:39.865Z,101197.49
2018-10-05T23:21:08.974Z,101194.02
2018-10-05T23:23:38.071Z,101199.33
2018-10-05T23:26:07.167Z,101197.98
2018-10-05T23:28:36.293Z,101199.33
2018-10-05T23:31:05.384Z,101195.84
2018-10-05T23:33:34.429Z,101186.91
2018-10-05T23:36:03.567Z,101191.81
2018-10-05T23:38:32.663Z,101190.46
2018-10-05T23:41:01.836Z,101182.49
2018-10-05T23:43:30.939Z,101184.29
2018-10-05T23:46:00.125Z,101180.25
2018-10-05T23:48:29.361Z,101181.14
2018-10-05T23:50:58.566Z,101180.25
2018-10-05T23:53:27.722Z,101174.01
2018-10-05T23:55:56.941Z,101173.63
2018-10-05T23:58:26.277Z,101179.87
